sensor_id;sensor_type;location;lat;lon;timestamp;temperature;humidity
7588;DHT22;3835;48.850;8.938;2023-10-13T00:00:13;17.20;99.90
7588;DHT22;3835;48.850;8.938;2023-10-13T00:02:52;17.10;99.90
7588;DHT22;3835;48.850;8.938;2023-10-13T00:05:20;17.10;99.90
7588;DHT22;3835;48.850;8.938;2023-10-13T00:07:47;17.00;99.90
7588;DHT22;3835;48.850;8.938;2023-10-13T00:10:15;17.00;99.90
7588;DHT22;3835;48.850;8.938;2023-10-13T00:12:44;17.00;99.90
7588;DHT22;3835;48.850;8.938;2023-10-13T00:15:15;16.90;99.90
7588;DHT22;3835;48.850;8.938;2023-10-13T00:17:43;16.90;99.90
7588;DHT22;3835;48.850;8.938;2023-10-13T00:20:10;16.90;99.90
7588;DHT22;3835;48.850;8.938;2023-10-13T00:23:00;16.90;99.90
7588;DHT22;3835;48.850;8.938;2023-10-13T00:25:28;16.80;99.90
7588;DHT22;3835;48.850;8.938;2023-10-13T00:28:09;16.70;99.90
7588;DHT22;3835;48.850;8.938;2023-10-13T00:30:36;16.60;99.90
7588;DHT22;3835;48.850;8.938;2023-10-13T00:33:03;16.60;99.90
7588;DHT22;3835;48.850;8.938;2023-10-13T00:35:30;16.50;99.90
7588;DHT22;3835;48.850;8.938;2023-10-13T00:38:04;16.40;99.90
7588;DHT22;3835;48.850;8.938;2023-10-13T00:40:38;16.50;99.90
7588;DHT22;3835;48.850;8.938;2023-10-13T00:43:09;16.50;99.90
7588;DHT22;3835;48.850;8.938;2023-10-13T00:45:55;16.50;99.90
7588;DHT22;3835;48.850;8.938;2023-10-13T00:48:23;16.50;99.90
7588;DHT22;3835;48.850;8.938;2023-10-13T00:50:55;16.40;99.90
7588;DHT22;3835;48.850;8.938;2023-10-13T00:53:25;16.40;99.90
7588;DHT22;3835;48.850;8.938;2023-10-13T00:55:54;16.40;99.90
7588;DHT22;3835;48.850;8.938;2023-10-13T00:58:22;16.30;99.90
7588;DHT22;3835;48.850;8.938;2023-10-13T01:00:50;16.30;99.90
7588;DHT22;3835;48.850;8.938;2023-10-13T01:03:23;16.30;99.90
7588;DHT22;3835;48.850;8.938;2023-10-13T01:05:53;16.30;99.90
7588;DHT22;3835;48.850;8.938;2023-10-13T01:08:32;16.30;99.90
7588;DHT22;3835;48.850;8.938;2023-10-13T01:11:03;16.40;99.90
7588;DHT22;3835;48.850;8.938;2023-10-13T01:13:32;16.30;99.90
7588;DHT22;3835;48.850;8.938;2023-10-13T01:16:02;16.30;99.90
7588;DHT22;3835;48.850;8.938;2023-10-13T01:18:28;16.30;99.90
7588;DHT22;3835;48.850;8.938;2023-10-13T01:20:55;16.30;99.90
7588;DHT22;3835;48.850;8.938;2023-10-13T01:23:26;16.20;99.90
7588;DHT22;3835;48.850;8.938;2023-10-13T01:25:54;16.10;99.90
7588;DHT22;3835;48.850;8.938;2023-10-13T01:28:21;16.10;99.90
7588;DHT22;3835;48.850;8.938;2023-10-13T01:30:49;16.10;99.90
7588;DHT22;3835;48.850;8.938;2023-10-13T01:33:16;16.00;99.90
7588;DHT22;3835;48.850;8.938;2023-10-13T01:35:42;16.00;99.90
7588;DHT22;3835;48.850;8.938;2023-10-13T01:38:13;15.90;99.90
7588;DHT22;3835;48.850;8.938;2023-10-13T01:40:41;15.90;99.90
7588;DHT22;3835;48.850;8.938;2023-10-13T01:43:09;15.80;99.90
7588;DHT22;3835;48.850;8.938;2023-10-13T01:45:40;15.80;99.90
7588;DHT22;3835;48.850;8.938;2023-10-13T01:48:12;15.70;99.90
7588;DHT22;3835;48.850;8.938;2023-10-13T01:50:41;15.70;99.90
7588;DHT22;3835;48.850;8.938;2023-10-13T01:53:07;15.70;99.90
7588;DHT22;3835;48.850;8.938;2023-10-13T01:55:38;15.60;99.90
7588;DHT22;3835;48.850;8.938;2023-10-13T01:58:10;15.60;99.90
7588;DHT22;3835;48.850;8.938;2023-10-13T02:00:41;15.60;99.90
7588;DHT22;3835;48.850;8.938;2023-10-13T02:03:08;15.60;99.90
7588;DHT22;3835;48.850;8.938;2023-10-13T02:05:40;15.50;99.90
7588;DHT22;3835;48.850;8.938;2023-10-13T02:08:09;15.50;99.90
7588;DHT22;3835;48.850;8.938;2023-10-13T02:10:43;15.40;99.90
7588;DHT22;3835;48.850;8.938;2023-10-13T02:13:13;15.40;99.90
7588;DHT22;3835;48.850;8.938;2023-10-13T02:15:44;15.40;99.90
7588;DHT22;3835;48.850;8.938;2023-10-13T02:18:12;15.40;99.90
7588;DHT22;3835;48.850;8.938;2023-10-13T02:20:39;15.30;99.90
7588;DHT22;3835;48.850;8.938;2023-10-13T02:23:10;15.30;99.90
7588;DHT22;3835;48.850;8.938;2023-10-13T02:25:37;15.20;99.90
7588;DHT22;3835;48.850;8.938;2023-10-13T02:28:13;15.10;99.90
7588;DHT22;3835;48.850;8.938;2023-10-13T02:30:40;15.10;99.90
7588;DHT22;3835;48.850;8.938;2023-10-13T02:33:11;15.10;99.90
7588;DHT22;3835;48.850;8.938;2023-10-13T02:35:39;15.10;99.90
7588;DHT22;3835;48.850;8.938;2023-10-13T02:38:15;15.10;99.90
7588;DHT22;3835;48.850;8.938;2023-10-13T02:40:57;15.00;99.90
7588;DHT22;3835;48.850;8.938;2023-10-13T02:43:33;15.00;99.90
7588;DHT22;3835;48.850;8.938;2023-10-13T02:46:00;14.90;99.90
7588;DHT22;3835;48.850;8.938;2023-10-13T02:48:27;14.90;99.90
7588;DHT22;3835;48.850;8.938;2023-10-13T02:51:06;14.80;99.90
7588;DHT22;3835;48.850;8.938;2023-10-13T02:53:41;14.80;99.90
7588;DHT22;3835;48.850;8.938;2023-10-13T02:56:08;14.80;99.90
7588;DHT22;3835;48.850;8.938;2023-10-13T02:58:35;14.80;99.90
7588;DHT22;3835;48.850;8.938;2023-10-13T03:01:06;14.80;99.90
7588;DHT22;3835;48.850;8.938;2023-10-13T03:03:43;14.80;99.90
7588;DHT22;3835;48.850;8.938;2023-10-13T03:06:13;14.80;99.90
7588;DHT22;3835;48.850;8.938;2023-10-13T03:08:39;14.90;99.90
7588;DHT22;3835;48.850;8.938;2023-10-13T03:11:06;14.90;99.90
7588;DHT22;3835;48.850;8.938;2023-10-13T03:13:32;14.90;99.90
7588;DHT22;3835;48.850;8.938;2023-10-13T03:16:00;14.90;99.90
7588;DHT22;3835;48.850;8.938;2023-10-13T03:18:26;14.90;99.90
7588;DHT22;3835;48.850;8.938;2023-10-13T03:20:59;14.90;99.90
7588;DHT22;3835;48.850;8.938;2023-10-13T03:23:28;14.90;99.90
7588;DHT22;3835;48.850;8.938;2023-10-13T03:25:55;14.90;99.90
7588;DHT22;3835;48.850;8.938;2023-10-13T03:28:21;14.90;99.90
7588;DHT22;3835;48.850;8.938;2023-10-13T03:30:51;14.90;99.90
7588;DHT22;3835;48.850;8.938;2023-10-13T03:33:20;14.90;99.90
7588;DHT22;3835;48.850;8.938;2023-10-13T03:35:52;15.00;99.90
7588;DHT22;3835;48.850;8.938;2023-10-13T03:38:19;15.00;99.90
7588;DHT22;3835;48.850;8.938;2023-10-13T03:40:47;15.10;99.90
7588;DHT22;3835;48.850;8.938;2023-10-13T03:43:21;15.10;99.90
7588;DHT22;3835;48.850;8.938;2023-10-13T03:45:49;15.10;99.90
7588;DHT22;3835;48.850;8.938;2023-10-13T03:48:27;15.10;99.90
7588;DHT22;3835;48.850;8.938;2023-10-13T03:50:59;15.10;99.90
7588;DHT22;3835;48.850;8.938;2023-10-13T03:53:32;15.10;99.90
7588;DHT22;3835;48.850;8.938;2023-10-13T03:56:05;15.10;99.90
7588;DHT22;3835;48.850;8.938;2023-10-13T03:58:38;15.10;99.90
7588;DHT22;3835;48.850;8.938;2023-10-13T04:01:11;15.10;99.90
7588;DHT22;3835;48.850;8.938;2023-10-13T04:03:42;15.00;99.90
7588;DHT22;3835;48.850;8.938;2023-10-13T04:06:22;15.00;99.90
7588;DHT22;3835;48.850;8.938;2023-10-13T04:09:09;15.00;99.90
7588;DHT22;3835;48.850;8.938;2023-10-13T04:11:53;14.90;99.90
7588;DHT22;3835;48.850;8.938;2023-10-13T04:14:35;15.00;99.90
7588;DHT22;3835;48.850;8.938;2023-10-13T04:17:16;14.90;99.90
7588;DHT22;3835;48.850;8.938;2023-10-13T04:19:50;14.90;99.90
7588;DHT22;3835;48.850;8.938;2023-10-13T04:22:31;14.90;99.90
7588;DHT22;3835;48.850;8.938;2023-10-13T04:25:28;14.80;99.90
7588;DHT22;3835;48.850;8.938;2023-10-13T04:28:00;14.80;99.90
7588;DHT22;3835;48.850;8.938;2023-10-13T04:30:59;14.70;99.90
7588;DHT22;3835;48.850;8.938;2023-10-13T04:33:38;14.60;99.90
7588;DHT22;3835;48.850;8.938;2023-10-13T04:36:18;14.60;99.90
7588;DHT22;3835;48.850;8.938;2023-10-13T04:39:02;14.60;99.90
7588;DHT22;3835;48.850;8.938;2023-10-13T04:41:35;14.60;99.90
7588;DHT22;3835;48.850;8.938;2023-10-13T04:44:05;14.60;99.90
7588;DHT22;3835;48.850;8.938;2023-10-13T04:46:49;14.60;99.90
7588;DHT22;3835;48.850;8.938;2023-10-13T04:49:38;14.60;99.90
7588;DHT22;3835;48.850;8.938;2023-10-13T04:52:16;14.60;99.90
7588;DHT22;3835;48.850;8.938;2023-10-13T04:55:05;14.60;99.90
7588;DHT22;3835;48.850;8.938;2023-10-13T04:57:44;14.60;99.90
7588;DHT22;3835;48.850;8.938;2023-10-13T05:00:18;14.70;99.90
7588;DHT22;3835;48.850;8.938;2023-10-13T05:03:03;14.70;99.90
7588;DHT22;3835;48.850;8.938;2023-10-13T05:06:06;14.70;99.90
7588;DHT22;3835;48.850;8.938;2023-10-13T05:09:00;14.80;99.90
7588;DHT22;3835;48.850;8.938;2023-10-13T05:11:44;14.80;99.90
7588;DHT22;3835;48.850;8.938;2023-10-13T05:14:28;14.80;99.90
7588;DHT22;3835;48.850;8.938;2023-10-13T05:17:12;14.80;99.90
7588;DHT22;3835;48.850;8.938;2023-10-13T05:19:57;14.80;99.90
7588;DHT22;3835;48.850;8.938;2023-10-13T05:22:42;14.90;99.90
7588;DHT22;3835;48.850;8.938;2023-10-13T05:25:28;14.90;99.90
7588;DHT22;3835;48.850;8.938;2023-10-13T05:28:11;14.90;99.90
7588;DHT22;3835;48.850;8.938;2023-10-13T05:30:58;14.90;99.90
7588;DHT22;3835;48.850;8.938;2023-10-13T05:33:43;14.90;99.90
7588;DHT22;3835;48.850;8.938;2023-10-13T05:36:28;15.00;99.90
7588;DHT22;3835;48.850;8.938;2023-10-13T05:39:12;15.10;99.90
7588;DHT22;3835;48.850;8.938;2023-10-13T05:41:58;15.10;99.90
7588;DHT22;3835;48.850;8.938;2023-10-13T05:44:43;15.20;99.90
7588;DHT22;3835;48.850;8.938;2023-10-13T05:47:22;15.30;99.90
7588;DHT22;3835;48.850;8.938;2023-10-13T05:50:07;15.30;99.90
7588;DHT22;3835;48.850;8.938;2023-10-13T05:52:54;15.40;99.90
7588;DHT22;3835;48.850;8.938;2023-10-13T05:55:38;15.40;99.90
7588;DHT22;3835;48.850;8.938;2023-10-13T05:58:24;15.50;99.90
7588;DHT22;3835;48.850;8.938;2023-10-13T06:01:12;15.60;99.90
7588;DHT22;3835;48.850;8.938;2023-10-13T06:03:56;15.70;99.90
7588;DHT22;3835;48.850;8.938;2023-10-13T06:06:40;15.70;99.90
7588;DHT22;3835;48.850;8.938;2023-10-13T06:09:25;15.80;99.90
7588;DHT22;3835;48.850;8.938;2023-10-13T06:12:09;15.90;99.90
7588;DHT22;3835;48.850;8.938;2023-10-13T06:14:54;16.00;99.90
7588;DHT22;3835;48.850;8.938;2023-10-13T06:17:39;16.00;99.90
7588;DHT22;3835;48.850;8.938;2023-10-13T06:20:23;16.10;99.90
7588;DHT22;3835;48.850;8.938;2023-10-13T06:23:07;16.10;99.90
7588;DHT22;3835;48.850;8.938;2023-10-13T06:25:51;16.20;99.90
7588;DHT22;3835;48.850;8.938;2023-10-13T06:28:35;16.30;99.90
7588;DHT22;3835;48.850;8.938;2023-10-13T06:31:10;16.40;99.90
7588;DHT22;3835;48.850;8.938;2023-10-13T06:33:46;16.50;99.90
7588;DHT22;3835;48.850;8.938;2023-10-13T06:36:14;16.50;99.90
7588;DHT22;3835;48.850;8.938;2023-10-13T06:38:43;16.50;99.90
7588;DHT22;3835;48.850;8.938;2023-10-13T06:41:10;16.60;99.90
7588;DHT22;3835;48.850;8.938;2023-10-13T06:43:45;16.60;99.90
7588;DHT22;3835;48.850;8.938;2023-10-13T06:46:26;16.60;99.90
7588;DHT22;3835;48.850;8.938;2023-10-13T06:48:54;16.50;99.90
7588;DHT22;3835;48.850;8.938;2023-10-13T06:51:24;16.60;99.90
7588;DHT22;3835;48.850;8.938;2023-10-13T06:53:56;16.60;99.90
7588;DHT22;3835;48.850;8.938;2023-10-13T06:56:23;16.70;99.90
7588;DHT22;3835;48.850;8.938;2023-10-13T06:58:53;16.80;99.90
7588;DHT22;3835;48.850;8.938;2023-10-13T07:01:26;16.80;99.90
7588;DHT22;3835;48.850;8.938;2023-10-13T07:03:53;16.90;99.90
7588;DHT22;3835;48.850;8.938;2023-10-13T07:06:19;17.10;99.90
7588;DHT22;3835;48.850;8.938;2023-10-13T07:08:46;17.20;99.90
7588;DHT22;3835;48.850;8.938;2023-10-13T07:11:18;17.20;99.90
7588;DHT22;3835;48.850;8.938;2023-10-13T07:13:58;17.20;99.90
7588;DHT22;3835;48.850;8.938;2023-10-13T07:16:27;17.50;99.90
7588;DHT22;3835;48.850;8.938;2023-10-13T07:19:01;17.70;99.90
7588;DHT22;3835;48.850;8.938;2023-10-13T07:21:32;17.90;99.90
7588;DHT22;3835;48.850;8.938;2023-10-13T07:23:59;18.10;99.90
7588;DHT22;3835;48.850;8.938;2023-10-13T07:26:36;18.30;99.90
7588;DHT22;3835;48.850;8.938;2023-10-13T07:29:08;18.40;99.90
7588;DHT22;3835;48.850;8.938;2023-10-13T07:31:36;18.60;99.90
7588;DHT22;3835;48.850;8.938;2023-10-13T07:34:06;18.70;99.90
7588;DHT22;3835;48.850;8.938;2023-10-13T07:36:39;18.80;99.90
7588;DHT22;3835;48.850;8.938;2023-10-13T07:39:08;18.90;99.90
7588;DHT22;3835;48.850;8.938;2023-10-13T07:41:47;19.00;99.90
7588;DHT22;3835;48.850;8.938;2023-10-13T07:44:18;19.20;99.90
7588;DHT22;3835;48.850;8.938;2023-10-13T07:46:52;19.30;99.90
7588;DHT22;3835;48.850;8.938;2023-10-13T07:49:27;19.50;99.90
7588;DHT22;3835;48.850;8.938;2023-10-13T07:51:57;19.70;99.90
7588;DHT22;3835;48.850;8.938;2023-10-13T07:54:26;19.80;99.90
7588;DHT22;3835;48.850;8.938;2023-10-13T07:56:53;19.80;99.90
7588;DHT22;3835;48.850;8.938;2023-10-13T07:59:21;19.90;99.90
7588;DHT22;3835;48.850;8.938;2023-10-13T08:01:50;20.00;99.90
7588;DHT22;3835;48.850;8.938;2023-10-13T08:04:31;20.10;99.90
7588;DHT22;3835;48.850;8.938;2023-10-13T08:07:00;20.20;99.90
7588;DHT22;3835;48.850;8.938;2023-10-13T08:09:38;20.30;99.90
7588;DHT22;3835;48.850;8.938;2023-10-13T08:12:07;20.50;99.90
7588;DHT22;3835;48.850;8.938;2023-10-13T08:14:37;20.60;99.80
7588;DHT22;3835;48.850;8.938;2023-10-13T08:17:08;20.70;99.90
7588;DHT22;3835;48.850;8.938;2023-10-13T08:19:36;20.80;99.50
7588;DHT22;3835;48.850;8.938;2023-10-13T08:22:10;20.90;99.60
7588;DHT22;3835;48.850;8.938;2023-10-13T08:25:01;21.10;99.20
7588;DHT22;3835;48.850;8.938;2023-10-13T08:27:50;21.30;98.40
7588;DHT22;3835;48.850;8.938;2023-10-13T08:30:50;21.40;98.80
7588;DHT22;3835;48.850;8.938;2023-10-13T08:33:20;21.60;97.30
7588;DHT22;3835;48.850;8.938;2023-10-13T08:35:52;21.70;97.80
7588;DHT22;3835;48.850;8.938;2023-10-13T08:38:42;21.80;97.20
7588;DHT22;3835;48.850;8.938;2023-10-13T08:41:17;21.90;97.10
7588;DHT22;3835;48.850;8.938;2023-10-13T08:44:03;22.00;97.30
7588;DHT22;3835;48.850;8.938;2023-10-13T08:46:32;22.10;97.10
7588;DHT22;3835;48.850;8.938;2023-10-13T08:49:19;22.30;96.80
7588;DHT22;3835;48.850;8.938;2023-10-13T08:51:49;22.30;96.90
7588;DHT22;3835;48.850;8.938;2023-10-13T08:54:32;22.30;96.40
7588;DHT22;3835;48.850;8.938;2023-10-13T08:57:11;22.50;96.30
7588;DHT22;3835;48.850;8.938;2023-10-13T08:59:58;22.60;96.00
7588;DHT22;3835;48.850;8.938;2023-10-13T09:02:45;22.70;95.40
7588;DHT22;3835;48.850;8.938;2023-10-13T09:05:47;22.70;95.60
7588;DHT22;3835;48.850;8.938;2023-10-13T09:08:28;22.70;95.80
7588;DHT22;3835;48.850;8.938;2023-10-13T09:11:02;22.70;96.00
7588;DHT22;3835;48.850;8.938;2023-10-13T09:13:37;23.00;95.10
7588;DHT22;3835;48.850;8.938;2023-10-13T09:16:10;23.10;94.20
7588;DHT22;3835;48.850;8.938;2023-10-13T09:18:48;23.30;93.80
7588;DHT22;3835;48.850;8.938;2023-10-13T09:21:16;23.40;94.20
7588;DHT22;3835;48.850;8.938;2023-10-13T09:24:12;23.50;93.20
7588;DHT22;3835;48.850;8.938;2023-10-13T09:26:53;23.60;93.60
7588;DHT22;3835;48.850;8.938;2023-10-13T09:29:21;23.60;92.90
7588;DHT22;3835;48.850;8.938;2023-10-13T09:31:59;23.70;92.80
7588;DHT22;3835;48.850;8.938;2023-10-13T09:34:26;23.70;92.00
7588;DHT22;3835;48.850;8.938;2023-10-13T09:36:57;23.50;92.60
7588;DHT22;3835;48.850;8.938;2023-10-13T09:39:25;23.70;91.90
7588;DHT22;3835;48.850;8.938;2023-10-13T09:41:56;23.80;92.40
7588;DHT22;3835;48.850;8.938;2023-10-13T09:44:23;23.90;92.10
7588;DHT22;3835;48.850;8.938;2023-10-13T09:46:49;24.00;91.90
7588;DHT22;3835;48.850;8.938;2023-10-13T09:49:22;24.20;90.80
7588;DHT22;3835;48.850;8.938;2023-10-13T09:52:14;24.30;90.40
7588;DHT22;3835;48.850;8.938;2023-10-13T09:54:51;24.40;90.40
7588;DHT22;3835;48.850;8.938;2023-10-13T09:57:28;24.80;90.70
7588;DHT22;3835;48.850;8.938;2023-10-13T10:00:06;24.70;90.30
7588;DHT22;3835;48.850;8.938;2023-10-13T10:02:33;24.90;89.10
7588;DHT22;3835;48.850;8.938;2023-10-13T10:05:00;24.90;87.80
7588;DHT22;3835;48.850;8.938;2023-10-13T10:07:39;24.80;88.30
7588;DHT22;3835;48.850;8.938;2023-10-13T10:10:09;24.80;88.40
7588;DHT22;3835;48.850;8.938;2023-10-13T10:12:41;24.90;86.80
7588;DHT22;3835;48.850;8.938;2023-10-13T10:15:20;25.00;87.40
7588;DHT22;3835;48.850;8.938;2023-10-13T10:17:54;24.80;89.00
7588;DHT22;3835;48.850;8.938;2023-10-13T10:20:28;24.50;88.00
7588;DHT22;3835;48.850;8.938;2023-10-13T10:23:00;24.30;88.90
7588;DHT22;3835;48.850;8.938;2023-10-13T10:25:30;24.40;88.10
7588;DHT22;3835;48.850;8.938;2023-10-13T10:28:02;24.40;89.50
7588;DHT22;3835;48.850;8.938;2023-10-13T10:30:32;24.50;90.10
7588;DHT22;3835;48.850;8.938;2023-10-13T10:33:00;24.70;89.40
7588;DHT22;3835;48.850;8.938;2023-10-13T10:35:33;25.00;86.70
7588;DHT22;3835;48.850;8.938;2023-10-13T10:38:09;25.10;86.80
7588;DHT22;3835;48.850;8.938;2023-10-13T10:40:52;25.30;86.40
7588;DHT22;3835;48.850;8.938;2023-10-13T10:43:23;25.40;86.60
7588;DHT22;3835;48.850;8.938;2023-10-13T10:45:52;25.50;86.30
7588;DHT22;3835;48.850;8.938;2023-10-13T10:48:25;25.40;86.60
7588;DHT22;3835;48.850;8.938;2023-10-13T10:50:57;25.60;87.20
7588;DHT22;3835;48.850;8.938;2023-10-13T10:53:25;25.90;84.80
7588;DHT22;3835;48.850;8.938;2023-10-13T10:56:04;25.90;84.80
7588;DHT22;3835;48.850;8.938;2023-10-13T10:58:34;25.80;84.40
7588;DHT22;3835;48.850;8.938;2023-10-13T11:01:09;25.80;82.00
7588;DHT22;3835;48.850;8.938;2023-10-13T11:03:38;25.90;82.90
7588;DHT22;3835;48.850;8.938;2023-10-13T11:06:11;26.10;80.50
7588;DHT22;3835;48.850;8.938;2023-10-13T11:08:44;26.20;81.60
7588;DHT22;3835;48.850;8.938;2023-10-13T11:11:27;26.10;81.20
7588;DHT22;3835;48.850;8.938;2023-10-13T11:13:56;26.10;80.60
7588;DHT22;3835;48.850;8.938;2023-10-13T11:16:45;26.20;79.00
7588;DHT22;3835;48.850;8.938;2023-10-13T11:19:16;26.20;80.70
7588;DHT22;3835;48.850;8.938;2023-10-13T11:21:46;26.10;77.50
7588;DHT22;3835;48.850;8.938;2023-10-13T11:24:14;25.80;79.10
7588;DHT22;3835;48.850;8.938;2023-10-13T11:26:43;25.60;79.20
7588;DHT22;3835;48.850;8.938;2023-10-13T11:29:15;25.50;78.50
7588;DHT22;3835;48.850;8.938;2023-10-13T11:31:45;25.50;78.90
7588;DHT22;3835;48.850;8.938;2023-10-13T11:34:19;25.50;78.70
7588;DHT22;3835;48.850;8.938;2023-10-13T11:36:46;25.60;77.80
7588;DHT22;3835;48.850;8.938;2023-10-13T11:39:14;25.60;77.40
7588;DHT22;3835;48.850;8.938;2023-10-13T11:41:48;25.60;78.70
7588;DHT22;3835;48.850;8.938;2023-10-13T11:44:20;25.80;77.10
7588;DHT22;3835;48.850;8.938;2023-10-13T11:46:49;26.00;75.70
7588;DHT22;3835;48.850;8.938;2023-10-13T11:49:47;26.20;75.60
7588;DHT22;3835;48.850;8.938;2023-10-13T11:52:14;26.20;75.90
7588;DHT22;3835;48.850;8.938;2023-10-13T11:54:45;26.20;74.10
7588;DHT22;3835;48.850;8.938;2023-10-13T11:57:12;26.20;73.40
7588;DHT22;3835;48.850;8.938;2023-10-13T11:59:42;26.20;73.90
7588;DHT22;3835;48.850;8.938;2023-10-13T12:02:19;26.30;74.70
7588;DHT22;3835;48.850;8.938;2023-10-13T12:05:04;26.30;73.70
7588;DHT22;3835;48.850;8.938;2023-10-13T12:07:37;26.30;73.10
7588;DHT22;3835;48.850;8.938;2023-10-13T12:10:12;26.40;72.30
7588;DHT22;3835;48.850;8.938;2023-10-13T12:12:46;26.40;73.50
7588;DHT22;3835;48.850;8.938;2023-10-13T12:15:19;26.40;74.40
7588;DHT22;3835;48.850;8.938;2023-10-13T12:18:02;26.40;74.30
7588;DHT22;3835;48.850;8.938;2023-10-13T12:20:29;26.40;73.10
7588;DHT22;3835;48.850;8.938;2023-10-13T12:23:01;26.50;71.70
7588;DHT22;3835;48.850;8.938;2023-10-13T12:25:42;26.50;71.10
7588;DHT22;3835;48.850;8.938;2023-10-13T12:28:23;26.50;72.00
7588;DHT22;3835;48.850;8.938;2023-10-13T12:30:55;26.60;72.40
7588;DHT22;3835;48.850;8.938;2023-10-13T12:33:25;26.60;70.70
7588;DHT22;3835;48.850;8.938;2023-10-13T12:35:56;26.80;71.50
7588;DHT22;3835;48.850;8.938;2023-10-13T12:38:55;27.00;70.70
7588;DHT22;3835;48.850;8.938;2023-10-13T12:41:41;27.10;69.60
7588;DHT22;3835;48.850;8.938;2023-10-13T12:44:25;27.30;69.40
7588;DHT22;3835;48.850;8.938;2023-10-13T12:47:10;27.30;70.60
7588;DHT22;3835;48.850;8.938;2023-10-13T12:49:54;27.30;70.10
7588;DHT22;3835;48.850;8.938;2023-10-13T12:52:33;27.20;68.80
7588;DHT22;3835;48.850;8.938;2023-10-13T12:55:00;27.10;67.20
7588;DHT22;3835;48.850;8.938;2023-10-13T12:57:34;27.10;66.60
7588;DHT22;3835;48.850;8.938;2023-10-13T13:00:10;27.10;67.20
7588;DHT22;3835;48.850;8.938;2023-10-13T13:02:46;27.10;67.80
7588;DHT22;3835;48.850;8.938;2023-10-13T13:05:16;27.00;67.80
7588;DHT22;3835;48.850;8.938;2023-10-13T13:07:46;26.90;66.40
7588;DHT22;3835;48.850;8.938;2023-10-13T13:10:18;26.90;67.10
7588;DHT22;3835;48.850;8.938;2023-10-13T13:12:46;26.80;67.40
7588;DHT22;3835;48.850;8.938;2023-10-13T13:15:13;26.80;67.70
7588;DHT22;3835;48.850;8.938;2023-10-13T13:17:40;26.80;66.60
7588;DHT22;3835;48.850;8.938;2023-10-13T13:20:08;26.70;66.30
7588;DHT22;3835;48.850;8.938;2023-10-13T13:22:51;26.70;65.50
7588;DHT22;3835;48.850;8.938;2023-10-13T13:25:19;26.60;65.80
7588;DHT22;3835;48.850;8.938;2023-10-13T13:27:52;26.60;65.20
7588;DHT22;3835;48.850;8.938;2023-10-13T13:30:19;26.60;66.70
7588;DHT22;3835;48.850;8.938;2023-10-13T13:32:47;26.60;66.80
7588;DHT22;3835;48.850;8.938;2023-10-13T13:35:15;26.60;67.00
7588;DHT22;3835;48.850;8.938;2023-10-13T13:37:44;26.60;65.70
7588;DHT22;3835;48.850;8.938;2023-10-13T13:40:11;26.60;66.40
7588;DHT22;3835;48.850;8.938;2023-10-13T13:42:41;26.50;66.00
7588;DHT22;3835;48.850;8.938;2023-10-13T13:45:13;26.40;65.90
7588;DHT22;3835;48.850;8.938;2023-10-13T13:47:48;26.40;64.80
7588;DHT22;3835;48.850;8.938;2023-10-13T13:50:19;26.30;64.70
7588;DHT22;3835;48.850;8.938;2023-10-13T13:52:50;26.30;64.90
7588;DHT22;3835;48.850;8.938;2023-10-13T13:55:19;26.20;64.80
7588;DHT22;3835;48.850;8.938;2023-10-13T13:57:46;26.20;65.40
7588;DHT22;3835;48.850;8.938;2023-10-13T14:00:17;26.20;66.80
7588;DHT22;3835;48.850;8.938;2023-10-13T14:02:49;26.20;65.10
7588;DHT22;3835;48.850;8.938;2023-10-13T14:05:15;26.20;64.40
7588;DHT22;3835;48.850;8.938;2023-10-13T14:07:43;26.20;64.20
7588;DHT22;3835;48.850;8.938;2023-10-13T14:10:15;26.10;65.20
7588;DHT22;3835;48.850;8.938;2023-10-13T14:12:57;26.10;65.40
7588;DHT22;3835;48.850;8.938;2023-10-13T14:15:33;25.90;66.20
7588;DHT22;3835;48.850;8.938;2023-10-13T14:18:06;25.80;65.20
7588;DHT22;3835;48.850;8.938;2023-10-13T14:20:38;25.90;65.80
7588;DHT22;3835;48.850;8.938;2023-10-13T14:23:06;25.90;65.70
7588;DHT22;3835;48.850;8.938;2023-10-13T14:25:33;25.90;64.60
7588;DHT22;3835;48.850;8.938;2023-10-13T14:28:03;25.90;64.70
7588;DHT22;3835;48.850;8.938;2023-10-13T14:30:30;25.90;65.00
7588;DHT22;3835;48.850;8.938;2023-10-13T14:32:59;25.90;65.40
7588;DHT22;3835;48.850;8.938;2023-10-13T14:35:26;25.80;65.30
7588;DHT22;3835;48.850;8.938;2023-10-13T14:37:54;25.80;64.90
7588;DHT22;3835;48.850;8.938;2023-10-13T14:40:21;25.80;64.80
7588;DHT22;3835;48.850;8.938;2023-10-13T14:42:48;25.60;65.20
7588;DHT22;3835;48.850;8.938;2023-10-13T14:45:15;25.60;65.00
7588;DHT22;3835;48.850;8.938;2023-10-13T14:47:43;25.60;66.00
7588;DHT22;3835;48.850;8.938;2023-10-13T14:50:12;25.50;64.70
7588;DHT22;3835;48.850;8.938;2023-10-13T14:52:45;25.40;65.70
7588;DHT22;3835;48.850;8.938;2023-10-13T14:55:12;25.40;65.40
7588;DHT22;3835;48.850;8.938;2023-10-13T14:57:46;25.40;66.00
7588;DHT22;3835;48.850;8.938;2023-10-13T15:00:14;25.40;65.60
7588;DHT22;3835;48.850;8.938;2023-10-13T15:02:40;25.20;67.60
7588;DHT22;3835;48.850;8.938;2023-10-13T15:05:10;25.10;66.80
7588;DHT22;3835;48.850;8.938;2023-10-13T15:07:42;25.10;67.30
7588;DHT22;3835;48.850;8.938;2023-10-13T15:10:11;25.00;67.60
7588;DHT22;3835;48.850;8.938;2023-10-13T15:12:41;24.90;68.20
7588;DHT22;3835;48.850;8.938;2023-10-13T15:15:08;24.90;67.20
7588;DHT22;3835;48.850;8.938;2023-10-13T15:17:39;24.80;67.00
7588;DHT22;3835;48.850;8.938;2023-10-13T15:20:06;24.80;68.20
7588;DHT22;3835;48.850;8.938;2023-10-13T15:22:36;24.80;67.50
7588;DHT22;3835;48.850;8.938;2023-10-13T15:25:05;24.70;67.70
7588;DHT22;3835;48.850;8.938;2023-10-13T15:27:43;24.60;67.70
7588;DHT22;3835;48.850;8.938;2023-10-13T15:30:11;24.50;68.00
7588;DHT22;3835;48.850;8.938;2023-10-13T15:32:48;24.50;68.30
7588;DHT22;3835;48.850;8.938;2023-10-13T15:35:16;24.30;67.60
7588;DHT22;3835;48.850;8.938;2023-10-13T15:37:44;24.30;67.80
7588;DHT22;3835;48.850;8.938;2023-10-13T15:40:14;24.30;67.70
7588;DHT22;3835;48.850;8.938;2023-10-13T15:42:42;24.30;67.90
7588;DHT22;3835;48.850;8.938;2023-10-13T15:45:10;24.20;67.70
7588;DHT22;3835;48.850;8.938;2023-10-13T15:47:43;24.20;67.50
7588;DHT22;3835;48.850;8.938;2023-10-13T15:50:12;24.00;67.70
7588;DHT22;3835;48.850;8.938;2023-10-13T15:52:41;23.90;68.10
7588;DHT22;3835;48.850;8.938;2023-10-13T15:55:13;23.80;67.40
7588;DHT22;3835;48.850;8.938;2023-10-13T15:57:40;23.80;67.50
7588;DHT22;3835;48.850;8.938;2023-10-13T16:00:09;23.70;67.50
7588;DHT22;3835;48.850;8.938;2023-10-13T16:02:50;23.70;67.30
7588;DHT22;3835;48.850;8.938;2023-10-13T16:05:18;23.60;66.50
7588;DHT22;3835;48.850;8.938;2023-10-13T16:07:45;23.60;66.70
7588;DHT22;3835;48.850;8.938;2023-10-13T16:10:13;23.60;66.50
7588;DHT22;3835;48.850;8.938;2023-10-13T16:12:40;23.50;66.40
7588;DHT22;3835;48.850;8.938;2023-10-13T16:15:07;23.50;65.60
7588;DHT22;3835;48.850;8.938;2023-10-13T16:17:39;23.50;65.50
7588;DHT22;3835;48.850;8.938;2023-10-13T16:20:07;23.40;65.70
7588;DHT22;3835;48.850;8.938;2023-10-13T16:22:44;23.20;65.50
7588;DHT22;3835;48.850;8.938;2023-10-13T16:25:13;23.10;66.20
7588;DHT22;3835;48.850;8.938;2023-10-13T16:27:41;23.00;65.50
7588;DHT22;3835;48.850;8.938;2023-10-13T16:30:09;22.80;65.90
7588;DHT22;3835;48.850;8.938;2023-10-13T16:32:41;22.60;66.20
7588;DHT22;3835;48.850;8.938;2023-10-13T16:35:12;22.40;66.70
7588;DHT22;3835;48.850;8.938;2023-10-13T16:37:38;22.10;67.30
7588;DHT22;3835;48.850;8.938;2023-10-13T16:40:06;21.90;67.60
7588;DHT22;3835;48.850;8.938;2023-10-13T16:42:35;21.70;68.50